Hovedside
METAR-TAF:

METAR-TAF

Lufthavner :

Meierwik

Glücksburg, Tyskland

breddegrad: 54-50N, lengdegrad: 009-30E, høyde over havet: 27 m

Gjeldene værobservasjon

Denne rapporten ble laget for 16 minutter siden, klokken 20:20 UTC
Vind 12 kt fra Vest-sørvest med vindkast opp mot 25 kt
Temperatur 13°C
Luftfuktighet 100%
Trykk 1003 hPa
Sikt: 4800 m
Brutte skyer i en høyde av 600 ft
lett regn, dis

METAR: ETGG 262020Z 24012G25KT 4800 -RA BR BKN006 13/13 Q1003 YLO

Tid: 22:36 (20:36 UTC)


TAF: fraværende

Værobservasjoner og værvarsel for over 4000 flyplasser (METAR- og TAF-rapporter).

Tilgjengelige stasjoner er representert av de røde og gule prikkene på kartet.

Hold musepekeren over prikken for å se navnet på stasjonen.

Klikk så for å se værobservasjoner og -varsler.

For å forandre kartet kan du klikke på den grønne knappen med svart kryss for å zoome inn, på den grønne knappen med strek for å zoome ut, eller på de grønne pilene for å se tilstøtende kart.


METAR-TAF: